OIFS  Shahrekord  Airport

Shahrekord, Iran

Add Bookmark
ICAO OIFS
IATA CQD
Type Airport
Status Operational
Latitude
32° 17' 49" N
32.297199
Longitude
50° 50' 31" E
50.842201
Local (DST + 5) UTC (GMT + 4)
Aug 28, 2015 09:36 Aug 28, 2015 05:06
Sunrise-Sunset Local UTC
Begin Civil Twilight 06:12 01:42
Sunrise 06:37 02:07
Sunset 07:37 15:07
End Civil Twilight 08:03 15:33
VFR
VFR
MVFR
MVFR
IFR
IFR
LIFR
LIFR
Unknown
Unavailable

Current Weather

METAR Observed VFR
OIFS 280400Z 00000KT CAVOK 16/M01 Q1024 Fri, Aug 28, 2015 @ 04:00 UTC
(1 Hour, 6 Minutes ago)
Visual Flight Rules
Wind Visibility Conditions
Calm 10 km or more
  • No significant weather
Temperatures Readings Precipitation
Current Temp
16°C
61°F
Dewpoint
-1°C
30°F
Humidity 31%
Altimeter 30.24" Hg
Sea Level Pressure 1,024 mb
Field Elevation
2,078 m
6,818 ft
None Recorded
-
-

CheckWX.com is intended as a tool to help pilots better visualize weather data. It is not intended as a substitute for an official weather briefing obtained from a Flight Service Station. CheckWX.com does not meet the FAA requirements for an official pre-flight weather briefing. Therefore, it's important that pilots still call and obtain an official FSS pre-flight weather briefing.

© 2007-2015 CheckWX.com
05:06:58 UTC